Alder, Washington
Current Conditions -  °F | °C
As of 10:58 PM on Thursday 30 Oct 2014 (Local Time) from KGRF Reporting Station
Heavy Rain Heavy Rain  
Wind Chill: 53°   Ceiling: 3300
Heat Index: 53°   Visibility: 8mi
Dew Point: 53°   Wind: 6mph
Humidity: 99%   Direction: 160°SSE
Pressure: 29.78"   Gusts: NA
Location:  46.8687°N, 122.208°W
Report Text: KGRF 310558Z AUTO 16005KT 8SM +RA OVC033 12/12 A2978 RMK AO2 SLP088 P0006 60037 T01190117 10143 20119 50002 $
Loading
Personal Weather Stations






























Interactive Weather Map
Tropical Storm Tracking
New forecast layout! Learn more

10-Day Weather Forecast

Advertisements
Track Severe Weather on mobile